createdAt,value
2018-04-28T00:01:46.458Z,3.30
2018-04-28T00:04:20.105Z,3.17
2018-04-28T00:06:53.924Z,2.80
2018-04-28T00:09:27.544Z,2.90
2018-04-28T00:12:01.428Z,2.93
2018-04-28T00:14:36.623Z,2.73
2018-04-28T00:17:10.472Z,3.00
2018-04-28T00:19:44.290Z,2.30
2018-04-28T00:22:18.469Z,2.80
2018-04-28T00:24:52.326Z,2.60
2018-04-28T00:27:26.304Z,2.70
2018-04-28T00:30:00.928Z,2.40
2018-04-28T00:32:35.892Z,3.00
2018-04-28T00:35:09.520Z,2.40
2018-04-28T00:37:46.672Z,2.70
2018-04-28T00:40:21.035Z,2.67
2018-04-28T00:42:54.747Z,2.67
2018-04-28T00:45:30.055Z,3.00
2018-04-28T00:48:05.833Z,2.80
2018-04-28T00:50:39.295Z,3.10
2018-04-28T00:53:13.251Z,3.00
2018-04-28T00:55:48.019Z,3.10
2018-04-28T00:58:21.669Z,2.67
2018-04-28T01:00:55.171Z,2.90
2018-04-28T01:03:29.152Z,2.90
2018-04-28T01:06:02.628Z,3.10
2018-04-28T01:08:36.312Z,3.73
2018-04-28T01:11:09.914Z,3.80
2018-04-28T01:13:43.447Z,3.90
2018-04-28T01:16:16.996Z,3.97
2018-04-28T01:18:52.267Z,4.10
2018-04-28T01:21:26.076Z,3.47
2018-04-28T01:23:59.647Z,3.10
2018-04-28T01:26:35.565Z,3.00
2018-04-28T01:29:09.387Z,3.13
2018-04-28T01:31:44.597Z,3.10
2018-04-28T01:34:18.611Z,3.00
2018-04-28T01:39:20.917Z,2.63
2018-04-28T01:41:55.491Z,2.37
2018-04-28T01:44:30.468Z,2.50
2018-04-28T01:47:05.475Z,2.33
2018-04-28T01:49:47.279Z,2.37
2018-04-28T01:52:21.453Z,2.20
2018-04-28T01:55:04.999Z,2.77
2018-04-28T01:57:39.488Z,2.23
2018-04-28T02:00:16.081Z,2.20
2018-04-28T02:02:51.439Z,2.23
2018-04-28T02:05:25.919Z,2.20
2018-04-28T02:08:00.080Z,2.20
2018-04-28T02:10:36.302Z,2.30
2018-04-28T02:13:10.349Z,2.50
2018-04-28T02:15:49.153Z,2.33
2018-04-28T02:18:25.434Z,2.53
2018-04-28T02:21:00.455Z,3.40
2018-04-28T02:23:35.354Z,3.50
2018-04-28T02:26:12.720Z,3.57
2018-04-28T02:28:46.649Z,2.77
2018-04-28T02:31:23.117Z,2.87
2018-04-28T02:33:58.284Z,2.70
2018-04-28T02:36:32.845Z,2.93
2018-04-28T02:39:06.882Z,2.47
2018-04-28T02:41:44.371Z,2.60
2018-04-28T02:44:22.723Z,3.37
2018-04-28T02:46:56.974Z,4.23
2018-04-28T02:49:31.637Z,3.87
2018-04-28T02:52:05.967Z,4.00
2018-04-28T02:54:42.775Z,3.60
2018-04-28T02:57:20.098Z,3.37
2018-04-28T03:02:34.805Z,2.97
2018-04-28T03:05:08.920Z,2.97
2018-04-28T03:07:42.300Z,3.00
2018-04-28T03:10:15.718Z,3.07
2018-04-28T03:12:48.923Z,2.50
2018-04-28T03:15:21.893Z,3.57
2018-04-28T03:17:55.095Z,3.67
2018-04-28T03:20:27.908Z,3.90
2018-04-28T03:23:01.012Z,4.07
2018-04-28T03:25:34.162Z,3.80
2018-04-28T03:28:07.128Z,4.10
2018-04-28T03:30:40.319Z,4.03
2018-04-28T03:33:13.975Z,3.40
2018-04-28T03:35:47.225Z,4.23
2018-04-28T03:38:20.085Z,3.60
2018-04-28T03:40:53.014Z,4.03
2018-04-28T03:43:26.494Z,3.50
2018-04-28T03:46:01.159Z,3.60
2018-04-28T03:48:34.017Z,3.33
2018-04-28T03:51:09.939Z,3.27
2018-04-28T03:53:45.664Z,3.90
2018-04-28T03:56:18.503Z,3.73
2018-04-28T03:59:02.290Z,4.20
2018-04-28T04:03:48.970Z,3.20
2018-04-28T04:06:22.151Z,3.53
2018-04-28T04:08:55.065Z,2.90
2018-04-28T04:11:32.544Z,3.20
2018-04-28T04:14:05.390Z,3.00
2018-04-28T04:16:38.578Z,2.87
2018-04-28T04:19:12.110Z,3.70
2018-04-28T04:21:45.183Z,3.30
2018-04-28T04:24:18.066Z,3.10
2018-04-28T04:26:51.776Z,3.00
2018-04-28T04:29:24.732Z,2.87
2018-04-28T04:31:57.979Z,2.90
2018-04-28T04:34:38.094Z,2.67
2018-04-28T04:37:11.130Z,2.33
2018-04-28T04:39:44.504Z,2.40
2018-04-28T04:42:18.114Z,2.07
2018-04-28T04:44:51.089Z,2.30
2018-04-28T04:47:24.835Z,2.10
2018-04-28T04:49:57.717Z,2.33
2018-04-28T04:52:31.644Z,2.43
2018-04-28T04:55:05.069Z,2.60
2018-04-28T04:57:38.307Z,1.97
2018-04-28T05:00:11.598Z,1.80
2018-04-28T05:02:47.052Z,1.70
2018-04-28T05:05:20.554Z,1.97
2018-04-28T05:07:56.543Z,2.40
2018-04-28T05:10:31.291Z,2.50
2018-04-28T05:13:04.274Z,2.67
2018-04-28T05:15:37.346Z,2.40
2018-04-28T05:18:10.979Z,2.20
2018-04-28T05:20:43.879Z,2.63
2018-04-28T05:23:17.413Z,3.10
2018-04-28T05:25:51.409Z,2.97
2018-04-28T05:28:28.827Z,2.97
2018-04-28T05:31:03.871Z,3.23
2018-04-28T05:33:37.265Z,3.43
2018-04-28T05:36:11.919Z,3.17
2018-04-28T05:38:45.822Z,3.43
2018-04-28T05:41:19.689Z,3.40
2018-04-28T05:43:57.662Z,3.10
2018-04-28T05:46:31.134Z,3.10
2018-04-28T05:49:05.437Z,3.30
2018-04-28T05:51:40.806Z,2.97
2018-04-28T05:54:14.144Z,3.03
2018-04-28T05:56:56.835Z,2.03
2018-04-28T05:59:38.971Z,2.47
2018-04-28T06:02:14.634Z,2.40
2018-04-28T06:04:47.969Z,2.30
2018-04-28T06:07:21.408Z,2.10
2018-04-28T06:09:57.824Z,1.73
2018-04-28T06:12:31.647Z,1.80
2018-04-28T06:15:05.124Z,1.57
2018-04-28T06:17:47.679Z,1.77
2018-04-28T06:20:26.741Z,1.60
2018-04-28T06:23:00.032Z,1.87
2018-04-28T06:25:34.020Z,1.87
2018-04-28T06:28:10.567Z,2.00
2018-04-28T06:30:43.544Z,1.67
2018-04-28T06:33:16.827Z,1.70
2018-04-28T06:35:50.305Z,1.73
2018-04-28T06:38:24.933Z,1.93
2018-04-28T06:41:01.780Z,1.60
2018-04-28T06:43:35.155Z,1.50
2018-04-28T06:46:08.658Z,1.63
2018-04-28T06:48:42.905Z,1.80
2018-04-28T06:51:18.661Z,1.73
2018-04-28T06:53:53.199Z,1.53
2018-04-28T06:56:26.489Z,1.40
2018-04-28T07:01:29.103Z,1.60
2018-04-28T07:04:02.049Z,2.10
2018-04-28T07:06:36.657Z,1.87
2018-04-28T07:09:09.801Z,1.70
2018-04-28T07:11:46.011Z,1.63
2018-04-28T07:14:20.891Z,1.50
2018-04-28T07:16:54.009Z,1.70
2018-04-28T07:19:27.084Z,1.60
2018-04-28T07:22:00.290Z,1.60
2018-04-28T07:24:33.938Z,1.47
2018-04-28T07:27:06.823Z,1.67
2018-04-28T07:29:40.387Z,2.00
2018-04-28T07:32:14.005Z,1.53
2018-04-28T07:34:48.601Z,1.63
2018-04-28T07:37:21.541Z,1.73
2018-04-28T07:39:55.857Z,1.73
2018-04-28T07:42:29.398Z,1.60
2018-04-28T07:45:02.740Z,1.40
2018-04-28T07:47:38.155Z,1.70
2018-04-28T07:50:11.246Z,1.50
2018-04-28T07:52:44.137Z,1.53
2018-04-28T07:55:18.159Z,1.60
2018-04-28T07:57:53.337Z,2.00
2018-04-28T08:00:27.058Z,1.50
2018-04-28T08:03:01.174Z,1.83
2018-04-28T08:05:35.425Z,1.57
2018-04-28T08:08:09.067Z,2.10
2018-04-28T08:10:44.229Z,1.47
2018-04-28T08:13:19.209Z,1.40
2018-04-28T08:15:53.716Z,1.50
2018-04-28T08:18:27.141Z,1.50
2018-04-28T08:21:02.107Z,1.30
2018-04-28T08:23:35.623Z,1.43
2018-04-28T08:26:17.866Z,1.50
2018-04-28T08:28:51.713Z,1.50
2018-04-28T08:31:27.541Z,1.50
2018-04-28T08:34:02.871Z,1.40
2018-04-28T08:36:36.807Z,1.77
2018-04-28T08:39:10.704Z,1.60
2018-04-28T08:41:47.617Z,1.50
2018-04-28T08:44:22.151Z,1.70
2018-04-28T08:46:56.241Z,1.43
2018-04-28T08:49:29.497Z,1.50
2018-04-28T08:52:04.144Z,1.40
2018-04-28T08:54:38.484Z,1.50
2018-04-28T08:57:12.263Z,1.30
2018-04-28T09:00:58.568Z,1.80
2018-04-28T09:03:37.323Z,1.33
2018-04-28T09:06:10.915Z,1.43
2018-04-28T09:08:48.470Z,1.40
2018-04-28T09:11:22.103Z,1.33
2018-04-28T09:13:56.117Z,1.60
2018-04-28T09:16:29.539Z,1.50
2018-04-28T09:19:02.944Z,1.90
2018-04-28T09:21:38.285Z,1.50
2018-04-28T09:24:12.826Z,1.77
2018-04-28T09:26:49.126Z,1.50
2018-04-28T09:29:23.138Z,1.37
2018-04-28T09:32:03.494Z,1.40
2018-04-28T09:34:39.090Z,1.40
2018-04-28T09:37:13.140Z,1.47
2018-04-28T09:39:49.082Z,1.50
2018-04-28T09:42:31.284Z,1.37
2018-04-28T09:45:05.272Z,1.43
2018-04-28T09:47:44.224Z,1.50
2018-04-28T09:50:19.139Z,1.50
2018-04-28T09:52:53.918Z,1.57
2018-04-28T09:55:27.724Z,1.57
2018-04-28T09:58:06.456Z,2.00
2018-04-28T10:00:44.076Z,1.57
2018-04-28T10:03:22.093Z,1.53
2018-04-28T10:05:56.012Z,1.30
2018-04-28T10:08:31.058Z,1.30
2018-04-28T10:11:04.539Z,1.50
2018-04-28T10:13:39.293Z,1.37
2018-04-28T10:16:14.561Z,1.50
2018-04-28T10:18:52.388Z,1.50
2018-04-28T10:21:27.002Z,1.70
2018-04-28T10:24:00.635Z,1.43
2018-04-28T10:26:34.536Z,1.70
2018-04-28T10:29:10.861Z,1.33
2018-04-28T10:31:44.811Z,1.70
2018-04-28T10:34:18.462Z,1.43
2018-04-28T10:36:51.659Z,1.60
2018-04-28T10:39:25.558Z,1.53
2018-04-28T10:41:59.111Z,1.40
2018-04-28T10:44:34.971Z,1.10
2018-04-28T10:47:08.744Z,1.33
2018-04-28T10:49:42.169Z,1.20
2018-04-28T10:54:50.010Z,1.20
2018-04-28T10:57:23.567Z,1.40
2018-04-28T10:59:57.262Z,1.30
2018-04-28T11:02:30.467Z,1.60
2018-04-28T11:05:04.643Z,1.50
2018-04-28T11:07:40.411Z,1.50
2018-04-28T11:10:15.016Z,1.37
2018-04-28T11:12:49.888Z,1.43
2018-04-28T11:15:32.863Z,1.77
2018-04-28T11:18:06.034Z,1.40
2018-04-28T11:20:41.710Z,2.00
2018-04-28T11:23:16.092Z,1.70
2018-04-28T11:25:49.416Z,1.50
2018-04-28T11:28:24.292Z,1.80
2018-04-28T11:30:58.083Z,1.50
2018-04-28T11:33:32.829Z,1.57
2018-04-28T11:36:07.644Z,1.97
2018-04-28T11:38:42.491Z,1.53
2018-04-28T11:41:20.216Z,1.60
2018-04-28T11:43:53.553Z,1.60
2018-04-28T11:46:27.849Z,1.80
2018-04-28T11:49:01.232Z,1.50
2018-04-28T11:51:34.971Z,1.50
2018-04-28T11:54:10.916Z,1.70
2018-04-28T11:56:46.887Z,1.60
2018-04-28T11:59:21.613Z,1.60
2018-04-28T12:01:55.512Z,1.40
2018-04-28T12:04:28.957Z,1.60
2018-04-28T12:07:02.473Z,1.80
2018-04-28T12:09:36.359Z,1.73
2018-04-28T12:12:09.842Z,1.83
2018-04-28T12:14:45.582Z,1.83
2018-04-28T12:17:21.252Z,1.80
2018-04-28T12:19:58.481Z,1.70
2018-04-28T12:22:32.825Z,1.83
2018-04-28T12:25:08.498Z,2.03
2018-04-28T12:27:42.126Z,1.63
2018-04-28T12:30:24.500Z,1.90
2018-04-28T12:33:04.069Z,2.00
2018-04-28T12:35:39.646Z,1.50
2018-04-28T12:38:15.123Z,1.63
2018-04-28T12:40:52.672Z,2.33
2018-04-28T12:43:26.257Z,1.97
2018-04-28T12:45:59.593Z,1.90
2018-04-28T12:48:34.402Z,1.83
2018-04-28T12:51:08.640Z,1.40
2018-04-28T12:53:41.769Z,1.70
2018-04-28T12:56:17.470Z,1.73
2018-04-28T12:58:51.073Z,2.00
2018-04-28T13:01:24.724Z,1.70
2018-04-28T13:03:58.212Z,1.90
2018-04-28T13:06:34.043Z,1.40
2018-04-28T13:09:07.384Z,1.70
2018-04-28T13:11:40.573Z,1.80
2018-04-28T13:14:14.214Z,1.73
2018-04-28T13:16:48.640Z,1.93
2018-04-28T13:19:27.432Z,2.00
2018-04-28T13:22:10.919Z,1.97
2018-04-28T13:25:04.520Z,1.70
2018-04-28T13:27:39.798Z,1.87
2018-04-28T13:30:14.132Z,1.57
2018-04-28T13:33:03.848Z,1.90
2018-04-28T13:35:39.638Z,1.57
2018-04-28T13:38:14.288Z,1.90
2018-04-28T13:40:48.068Z,1.77
2018-04-28T13:43:22.691Z,1.57
2018-04-28T13:45:57.950Z,1.80
2018-04-28T13:48:32.039Z,1.90
2018-04-28T13:51:06.689Z,1.40
2018-04-28T13:53:40.648Z,1.80
2018-04-28T13:56:21.182Z,1.70
2018-04-28T13:59:07.271Z,1.60
2018-04-28T14:01:47.421Z,1.70
2018-04-28T14:04:24.081Z,1.87
2018-04-28T14:06:57.793Z,1.50
2018-04-28T14:09:30.940Z,1.70
2018-04-28T14:12:04.536Z,1.47
2018-04-28T14:14:37.778Z,1.60
2018-04-28T14:17:11.023Z,1.80
2018-04-28T14:19:45.633Z,1.60
2018-04-28T14:22:26.225Z,1.60
2018-04-28T14:25:06.787Z,1.60
2018-04-28T14:27:48.343Z,1.80
2018-04-28T14:30:22.588Z,1.63
2018-04-28T14:32:56.370Z,1.70
2018-04-28T14:35:29.459Z,1.57
2018-04-28T14:38:02.903Z,2.20
2018-04-28T14:40:37.462Z,1.93
2018-04-28T14:43:11.140Z,1.90
2018-04-28T14:45:45.238Z,1.83
2018-04-28T14:48:18.621Z,2.10
2018-04-28T14:50:52.042Z,2.00
2018-04-28T14:53:25.909Z,2.17
2018-04-28T14:58:36.372Z,2.17
2018-04-28T15:01:10.271Z,2.50
2018-04-28T15:03:45.666Z,2.10
2018-04-28T15:06:21.597Z,2.30
2018-04-28T15:08:55.348Z,1.80
2018-04-28T15:11:29.879Z,1.73
2018-04-28T15:14:03.206Z,1.80
2018-04-28T15:16:37.138Z,1.87
2018-04-28T15:19:16.791Z,1.70
2018-04-28T15:21:51.282Z,2.00
2018-04-28T15:24:24.307Z,2.00
2018-04-28T15:26:57.531Z,2.20
2018-04-28T15:29:31.211Z,1.70
2018-04-28T15:32:04.475Z,2.03
2018-04-28T15:34:43.831Z,3.90
2018-04-28T15:37:18.137Z,3.40
2018-04-28T15:39:53.776Z,5.00
2018-04-28T15:42:27.191Z,6.97
2018-04-28T15:45:05.968Z,4.23
2018-04-28T15:47:39.886Z,2.93
2018-04-28T15:50:18.779Z,2.30
2018-04-28T15:52:53.185Z,2.37
2018-04-28T15:55:28.632Z,2.17
2018-04-28T15:58:03.392Z,2.30
2018-04-28T16:00:38.690Z,2.30
2018-04-28T16:03:21.256Z,1.90
2018-04-28T16:06:01.817Z,2.27
2018-04-28T16:08:39.522Z,4.13
2018-04-28T16:11:14.131Z,3.47
2018-04-28T16:13:48.019Z,2.40
2018-04-28T16:16:21.324Z,3.13
2018-04-28T16:18:55.356Z,2.30
2018-04-28T16:21:28.622Z,2.53
2018-04-28T16:24:01.946Z,1.97
2018-04-28T16:26:36.033Z,1.70
2018-04-28T16:29:09.188Z,1.77
2018-04-28T16:31:43.573Z,1.90
2018-04-28T16:34:16.969Z,1.80
2018-04-28T16:36:51.823Z,2.77
2018-04-28T16:39:25.043Z,3.47
2018-04-28T16:42:01.876Z,2.33
2018-04-28T16:44:35.075Z,2.20
2018-04-28T16:47:08.927Z,2.30
2018-04-28T16:49:42.596Z,2.10
2018-04-28T16:52:15.823Z,1.90
2018-04-28T16:54:49.166Z,2.07
2018-04-28T16:57:22.679Z,2.00
2018-04-28T16:59:55.932Z,2.33
2018-04-28T17:02:29.192Z,3.10
2018-04-28T17:05:03.546Z,2.10
2018-04-28T17:07:37.409Z,2.20
2018-04-28T17:10:11.089Z,2.17
2018-04-28T17:12:44.527Z,2.33
2018-04-28T17:17:55.500Z,2.10
2018-04-28T17:20:29.010Z,1.90
2018-04-28T17:23:02.698Z,2.07
2018-04-28T17:25:37.114Z,2.73
2018-04-28T17:28:10.303Z,2.00
2018-04-28T17:30:44.856Z,2.40
2018-04-28T17:33:24.816Z,2.07
2018-04-28T17:35:58.473Z,2.00
2018-04-28T17:38:32.662Z,1.90
2018-04-28T17:41:06.333Z,2.10
2018-04-28T17:43:40.039Z,1.70
2018-04-28T17:46:18.923Z,1.37
2018-04-28T17:48:52.412Z,1.53
2018-04-28T17:51:26.557Z,1.70
2018-04-28T17:54:02.316Z,1.90
2018-04-28T17:56:36.490Z,1.90
2018-04-28T17:59:13.248Z,1.40
2018-04-28T18:01:46.593Z,1.90
2018-04-28T18:04:20.032Z,1.80
2018-04-28T18:07:03.749Z,1.60
2018-04-28T18:09:45.704Z,1.60
2018-04-28T18:12:19.323Z,1.40
2018-04-28T18:14:53.075Z,1.60
2018-04-28T18:17:26.415Z,1.80
2018-04-28T18:20:01.856Z,1.83
2018-04-28T18:22:35.866Z,1.93
2018-04-28T18:25:10.135Z,1.80
2018-04-28T18:27:44.169Z,1.90
2018-04-28T18:30:18.804Z,2.10
2018-04-28T18:32:59.172Z,2.20
2018-04-28T18:35:33.807Z,2.20
2018-04-28T18:38:07.664Z,2.17
2018-04-28T18:40:41.244Z,2.10
2018-04-28T18:43:18.043Z,2.30
2018-04-28T18:45:56.554Z,1.87
2018-04-28T18:48:30.904Z,1.90
2018-04-28T18:51:07.376Z,2.13
2018-04-28T18:53:40.706Z,2.17
2018-04-28T18:56:14.398Z,2.17
2018-04-28T18:58:47.726Z,2.10
2018-04-28T19:01:21.331Z,2.37
2018-04-28T19:03:55.028Z,2.03
2018-04-28T19:06:29.358Z,1.53
2018-04-28T19:09:02.774Z,1.93
2018-04-28T19:11:41.876Z,2.13
2018-04-28T19:14:21.029Z,2.00
2018-04-28T19:17:00.364Z,2.00
2018-04-28T19:19:41.123Z,2.00
2018-04-28T19:22:19.612Z,1.53
2018-04-28T19:24:54.370Z,2.40
2018-04-28T19:27:27.957Z,2.40
2018-04-28T19:30:02.118Z,2.27
2018-04-28T19:32:35.307Z,2.10
2018-04-28T19:35:13.911Z,1.77
2018-04-28T19:37:47.935Z,2.20
2018-04-28T19:40:23.859Z,1.90
2018-04-28T19:42:57.276Z,2.43
2018-04-28T19:45:31.740Z,3.00
2018-04-28T19:48:05.096Z,2.83
2018-04-28T19:50:38.874Z,2.57
2018-04-28T19:53:12.071Z,2.30
2018-04-28T19:55:45.823Z,2.53
2018-04-28T19:58:19.235Z,2.17
2018-04-28T20:00:52.740Z,2.27
2018-04-28T20:03:26.585Z,2.30
2018-04-28T20:06:00.856Z,2.53
2018-04-28T20:08:34.686Z,2.00
2018-04-28T20:11:07.896Z,2.27
2018-04-28T20:13:41.503Z,2.30
2018-04-28T20:16:14.940Z,2.30
2018-04-28T20:18:50.634Z,2.00
2018-04-28T20:23:59.017Z,2.10
2018-04-28T20:26:32.282Z,2.10
2018-04-28T20:29:05.925Z,1.93
2018-04-28T20:31:39.448Z,2.00
2018-04-28T20:34:12.612Z,2.47
2018-04-28T20:36:46.500Z,2.30
2018-04-28T20:39:22.655Z,2.37
2018-04-28T20:41:57.179Z,2.23
2018-04-28T20:44:31.840Z,2.10
2018-04-28T20:47:05.125Z,2.07
2018-04-28T20:49:38.743Z,2.30
2018-04-28T20:52:13.173Z,2.30
2018-04-28T20:54:47.124Z,2.23
2018-04-28T20:57:22.267Z,2.50
2018-04-28T20:59:55.807Z,2.30
2018-04-28T21:02:29.558Z,3.20
2018-04-28T21:05:02.932Z,3.00
2018-04-28T21:07:36.312Z,2.73
2018-04-28T21:10:09.507Z,2.73
2018-04-28T21:12:43.154Z,3.30
2018-04-28T21:15:17.729Z,3.10
2018-04-28T21:17:51.190Z,2.97
2018-04-28T21:20:24.597Z,3.23
2018-04-28T21:22:58.568Z,3.10
2018-04-28T21:25:32.257Z,2.73
2018-04-28T21:28:05.596Z,3.20
2018-04-28T21:30:39.897Z,2.67
2018-04-28T21:33:13.353Z,2.80
2018-04-28T21:35:46.790Z,3.10
2018-04-28T21:38:20.413Z,2.70
2018-04-28T21:40:57.484Z,3.10
2018-04-28T21:43:30.507Z,3.60
2018-04-28T21:46:03.461Z,3.80
2018-04-28T21:48:37.285Z,3.03
2018-04-28T21:51:10.335Z,3.00
2018-04-28T21:53:43.448Z,3.47
2018-04-28T21:56:16.959Z,3.50
2018-04-28T21:58:51.828Z,3.10
2018-04-28T22:01:25.955Z,2.90
2018-04-28T22:03:59.458Z,2.97
2018-04-28T22:06:32.679Z,3.57
2018-04-28T22:09:07.576Z,3.60
2018-04-28T22:11:41.022Z,3.20
2018-04-28T22:14:14.586Z,3.47
2018-04-28T22:16:53.238Z,3.60
2018-04-28T22:19:26.607Z,3.83
2018-04-28T22:21:59.882Z,4.03
2018-04-28T22:24:33.215Z,3.93
2018-04-28T22:27:15.608Z,3.67
2018-04-28T22:29:48.994Z,3.50
2018-04-28T22:32:22.250Z,4.40
2018-04-28T22:34:55.281Z,4.40
2018-04-28T22:37:28.635Z,3.33
2018-04-28T22:40:01.878Z,4.30
2018-04-28T22:42:35.092Z,4.33
2018-04-28T22:45:08.068Z,4.50
2018-04-28T22:47:41.302Z,4.17
2018-04-28T22:50:14.340Z,3.80
2018-04-28T22:52:47.651Z,3.90
2018-04-28T22:55:20.737Z,5.10
2018-04-28T22:57:53.911Z,4.40
2018-04-28T23:00:27.502Z,4.20
2018-04-28T23:03:00.364Z,4.43
2018-04-28T23:05:34.346Z,3.97
2018-04-28T23:08:08.101Z,4.03
2018-04-28T23:10:41.095Z,4.80
2018-04-28T23:13:14.386Z,5.00
2018-04-28T23:15:47.640Z,4.73
2018-04-28T23:18:21.679Z,4.57
2018-04-28T23:20:55.135Z,4.17
2018-04-28T23:23:28.379Z,4.83
2018-04-28T23:26:01.458Z,5.20
2018-04-28T23:28:35.140Z,5.10
2018-04-28T23:31:08.760Z,4.77
2018-04-28T23:33:42.262Z,4.40
2018-04-28T23:36:15.423Z,5.07
2018-04-28T23:38:49.053Z,5.00
2018-04-28T23:41:22.432Z,5.20
2018-04-28T23:43:55.493Z,5.40
2018-04-28T23:46:28.623Z,6.07
2018-04-28T23:49:02.030Z,6.83
2018-04-28T23:51:35.441Z,6.07
2018-04-28T23:54:09.151Z,5.20
2018-04-28T23:56:42.430Z,5.10
2018-04-28T23:59:15.673Z,5.17
